sensor_id;sensor_type;location;lat;lon;timestamp;pressure;altitude;pressure_sealevel;temperature;humidity
20009;BME280;10165;42.662;23.260;2022-11-14T00:00:58;95215.59;;;9.36;60.05
20009;BME280;10165;42.662;23.260;2022-11-14T00:03:25;95213.91;;;9.00;61.16
20009;BME280;10165;42.662;23.260;2022-11-14T00:05:51;95222.31;;;8.94;61.48
20009;BME280;10165;42.662;23.260;2022-11-14T00:08:23;95207.06;;;9.08;61.37
20009;BME280;10165;42.662;23.260;2022-11-14T00:10:53;95208.13;;;8.76;61.92
20009;BME280;10165;42.662;23.260;2022-11-14T00:13:20;95212.94;;;8.96;61.92
20009;BME280;10165;42.662;23.260;2022-11-14T00:15:48;95212.56;;;9.20;61.19
20009;BME280;10165;42.662;23.260;2022-11-14T00:18:16;95212.47;;;9.34;60.42
20009;BME280;10165;42.662;23.260;2022-11-14T00:20:49;95215.44;;;8.93;61.72
20009;BME280;10165;42.662;23.260;2022-11-14T00:23:17;95220.66;;;9.06;61.65
20009;BME280;10165;42.662;23.260;2022-11-14T00:25:44;95215.81;;;9.08;61.65
20009;BME280;10165;42.662;23.260;2022-11-14T00:28:12;95213.38;;;9.29;61.04
20009;BME280;10165;42.662;23.260;2022-11-14T00:30:38;95219.31;;;8.87;62.25
20009;BME280;10165;42.662;23.260;2022-11-14T00:33:05;95215.28;;;9.29;61.19
20009;BME280;10165;42.662;23.260;2022-11-14T00:35:32;95224.09;;;9.38;61.11
20009;BME280;10165;42.662;23.260;2022-11-14T00:37:58;95217.13;;;9.28;61.04
20009;BME280;10165;42.662;23.260;2022-11-14T00:40:25;95217.63;;;9.30;60.63
20009;BME280;10165;42.662;23.260;2022-11-14T00:42:52;95212.94;;;8.96;60.58
20009;BME280;10165;42.662;23.260;2022-11-14T00:45:18;95216.22;;;8.93;61.63
20009;BME280;10165;42.662;23.260;2022-11-14T00:47:45;95212.41;;;9.17;61.29
20009;BME280;10165;42.662;23.260;2022-11-14T00:50:11;95219.97;;;9.32;61.27
20009;BME280;10165;42.662;23.260;2022-11-14T00:52:38;95215.59;;;9.36;60.86
20009;BME280;10165;42.662;23.260;2022-11-14T00:55:05;95206.66;;;9.32;60.67
20009;BME280;10165;42.662;23.260;2022-11-14T00:57:32;95205.88;;;9.31;60.59
20009;BME280;10165;42.662;23.260;2022-11-14T00:59:59;95200.28;;;9.50;60.18
20009;BME280;10165;42.662;23.260;2022-11-14T01:02:25;95200.72;;;9.35;60.68
20009;BME280;10165;42.662;23.260;2022-11-14T01:04:52;95194.47;;;9.48;60.90
20009;BME280;10165;42.662;23.260;2022-11-14T01:07:19;95202.28;;;9.36;61.27
20009;BME280;10165;42.662;23.260;2022-11-14T01:09:45;95197.75;;;9.45;60.59
20009;BME280;10165;42.662;23.260;2022-11-14T01:12:12;95196.28;;;9.22;60.85
20009;BME280;10165;42.662;23.260;2022-11-14T01:14:39;95202.63;;;8.73;61.46
20009;BME280;10165;42.662;23.260;2022-11-14T01:17:06;95199.25;;;8.36;62.40
20009;BME280;10165;42.662;23.260;2022-11-14T01:19:33;95202.88;;;8.62;62.61
20009;BME280;10165;42.662;23.260;2022-11-14T01:22:00;95199.88;;;8.55;62.79
20009;BME280;10165;42.662;23.260;2022-11-14T01:24:32;95198.63;;;8.84;62.12
20009;BME280;10165;42.662;23.260;2022-11-14T01:26:59;95201.41;;;9.09;61.74
20009;BME280;10165;42.662;23.260;2022-11-14T01:29:27;95195.91;;;9.06;61.62
20009;BME280;10165;42.662;23.260;2022-11-14T01:31:54;95203.19;;;9.23;61.41
20009;BME280;10165;42.662;23.260;2022-11-14T01:34:21;95184.25;;;9.41;60.83
20009;BME280;10165;42.662;23.260;2022-11-14T01:36:48;95187.09;;;9.45;60.28
20009;BME280;10165;42.662;23.260;2022-11-14T01:39:14;95181.69;;;9.28;60.38
20009;BME280;10165;42.662;23.260;2022-11-14T01:41:41;95184.19;;;9.16;60.69
20009;BME280;10165;42.662;23.260;2022-11-14T01:44:16;95179.41;;;8.95;60.93
20009;BME280;10165;42.662;23.260;2022-11-14T01:46:51;95176.78;;;9.04;61.05
20009;BME280;10165;42.662;23.260;2022-11-14T01:49:31;95173.84;;;8.83;61.50
20009;BME280;10165;42.662;23.260;2022-11-14T01:52:05;95175.56;;;8.79;60.67
20009;BME280;10165;42.662;23.260;2022-11-14T01:54:41;95171.28;;;8.39;61.60
20009;BME280;10165;42.662;23.260;2022-11-14T01:57:11;95173.66;;;8.27;63.11
20009;BME280;10165;42.662;23.260;2022-11-14T01:59:41;95160.09;;;8.59;61.86
20009;BME280;10165;42.662;23.260;2022-11-14T02:02:17;95168.41;;;8.57;62.03
20009;BME280;10165;42.662;23.260;2022-11-14T02:04:49;95161.34;;;8.08;64.11
20009;BME280;10165;42.662;23.260;2022-11-14T02:07:17;95162.06;;;8.23;63.52
20009;BME280;10165;42.662;23.260;2022-11-14T02:09:45;95154.47;;;7.94;63.70
20009;BME280;10165;42.662;23.260;2022-11-14T02:12:16;95157.91;;;7.72;64.26
20009;BME280;10165;42.662;23.260;2022-11-14T02:14:44;95153.56;;;7.98;63.70
20009;BME280;10165;42.662;23.260;2022-11-14T02:17:13;95140.41;;;7.93;63.53
20009;BME280;10165;42.662;23.260;2022-11-14T02:22:39;95146.44;;;7.85;63.28
20009;BME280;10165;42.662;23.260;2022-11-14T02:25:07;95136.16;;;7.92;63.36
20009;BME280;10165;42.662;23.260;2022-11-14T02:27:35;95144.22;;;8.01;63.29
20009;BME280;10165;42.662;23.260;2022-11-14T02:30:06;95144.09;;;8.06;62.74
20009;BME280;10165;42.662;23.260;2022-11-14T02:32:33;95135.09;;;8.15;62.70
20009;BME280;10165;42.662;23.260;2022-11-14T02:35:20;95135.53;;;8.31;62.53
20009;BME280;10165;42.662;23.260;2022-11-14T02:37:47;95135.94;;;8.47;61.90
20009;BME280;10165;42.662;23.260;2022-11-14T02:40:13;95147.34;;;8.25;62.47
20009;BME280;10165;42.662;23.260;2022-11-14T02:42:40;95136.44;;;8.13;62.77
20009;BME280;10165;42.662;23.260;2022-11-14T02:45:08;95142.56;;;8.58;61.77
20009;BME280;10165;42.662;23.260;2022-11-14T02:47:34;95145.41;;;8.17;61.40
20009;BME280;10165;42.662;23.260;2022-11-14T02:50:01;95143.41;;;8.23;61.86
20009;BME280;10165;42.662;23.260;2022-11-14T02:52:28;95151.50;;;7.73;64.58
20009;BME280;10165;42.662;23.260;2022-11-14T02:54:55;95140.59;;;7.61;65.16
20009;BME280;10165;42.662;23.260;2022-11-14T02:57:21;95137.06;;;7.88;64.28
20009;BME280;10165;42.662;23.260;2022-11-14T02:59:48;95150.25;;;7.93;64.28
20009;BME280;10165;42.662;23.260;2022-11-14T03:02:15;95144.88;;;8.06;63.98
20009;BME280;10165;42.662;23.260;2022-11-14T03:04:41;95137.97;;;8.28;62.79
20009;BME280;10165;42.662;23.260;2022-11-14T03:07:08;95134.13;;;8.11;62.88
20009;BME280;10165;42.662;23.260;2022-11-14T03:09:35;95126.38;;;8.24;62.93
20009;BME280;10165;42.662;23.260;2022-11-14T03:12:01;95134.94;;;7.98;63.08
20009;BME280;10165;42.662;23.260;2022-11-14T03:14:29;95132.19;;;7.81;63.38
20009;BME280;10165;42.662;23.260;2022-11-14T03:16:57;95139.72;;;7.65;63.06
20009;BME280;10165;42.662;23.260;2022-11-14T03:19:23;95137.00;;;7.79;63.30
20009;BME280;10165;42.662;23.260;2022-11-14T03:21:50;95145.84;;;7.88;62.87
20009;BME280;10165;42.662;23.260;2022-11-14T03:24:17;95135.09;;;7.93;63.05
20009;BME280;10165;42.662;23.260;2022-11-14T03:26:43;95135.31;;;8.28;62.60
20009;BME280;10165;42.662;23.260;2022-11-14T03:29:10;95129.78;;;8.24;62.25
20009;BME280;10165;42.662;23.260;2022-11-14T03:31:37;95120.31;;;8.09;61.91
20009;BME280;10165;42.662;23.260;2022-11-14T03:34:03;95128.06;;;8.20;62.07
20009;BME280;10165;42.662;23.260;2022-11-14T03:36:30;95131.31;;;7.94;62.27
20009;BME280;10165;42.662;23.260;2022-11-14T03:38:56;95125.94;;;7.86;62.17
20009;BME280;10165;42.662;23.260;2022-11-14T03:41:23;95134.66;;;8.00;61.63
20009;BME280;10165;42.662;23.260;2022-11-14T03:43:50;95131.91;;;7.69;62.56
20009;BME280;10165;42.662;23.260;2022-11-14T03:46:16;95129.16;;;7.74;62.54
20009;BME280;10165;42.662;23.260;2022-11-14T03:48:43;95121.72;;;7.85;62.36
20009;BME280;10165;42.662;23.260;2022-11-14T03:51:10;95133.63;;;7.87;61.78
20009;BME280;10165;42.662;23.260;2022-11-14T03:53:36;95123.22;;;7.99;61.67
20009;BME280;10165;42.662;23.260;2022-11-14T03:56:03;95127.38;;;7.69;62.43
20009;BME280;10165;42.662;23.260;2022-11-14T03:58:30;95127.44;;;7.78;62.79
20009;BME280;10165;42.662;23.260;2022-11-14T04:00:57;95125.13;;;7.63;62.96
20009;BME280;10165;42.662;23.260;2022-11-14T04:03:24;95128.63;;;7.50;63.74
20009;BME280;10165;42.662;23.260;2022-11-14T04:05:51;95131.75;;;7.52;63.47
20009;BME280;10165;42.662;23.260;2022-11-14T04:08:18;95126.09;;;7.67;63.18
20009;BME280;10165;42.662;23.260;2022-11-14T04:10:48;95132.97;;;7.46;63.29
20009;BME280;10165;42.662;23.260;2022-11-14T04:13:14;95128.19;;;7.70;63.01
20009;BME280;10165;42.662;23.260;2022-11-14T04:15:41;95123.31;;;7.50;62.84
20009;BME280;10165;42.662;23.260;2022-11-14T04:18:08;95133.09;;;7.63;63.21
20009;BME280;10165;42.662;23.260;2022-11-14T04:20:34;95124.22;;;7.67;62.61
20009;BME280;10165;42.662;23.260;2022-11-14T04:23:01;95125.75;;;7.82;61.92
20009;BME280;10165;42.662;23.260;2022-11-14T04:25:28;95122.25;;;7.95;61.50
20009;BME280;10165;42.662;23.260;2022-11-14T04:27:54;95122.06;;;7.92;61.87
20009;BME280;10165;42.662;23.260;2022-11-14T04:30:21;95120.56;;;7.99;61.60
20009;BME280;10165;42.662;23.260;2022-11-14T04:32:47;95114.88;;;7.92;61.20
20009;BME280;10165;42.662;23.260;2022-11-14T04:35:14;95114.63;;;8.02;61.29
20009;BME280;10165;42.662;23.260;2022-11-14T04:37:41;95112.06;;;7.89;62.00
20009;BME280;10165;42.662;23.260;2022-11-14T04:40:08;95115.16;;;7.68;61.84
20009;BME280;10165;42.662;23.260;2022-11-14T04:42:35;95113.13;;;7.88;61.58
20009;BME280;10165;42.662;23.260;2022-11-14T04:45:02;95120.81;;;7.89;61.48
20009;BME280;10165;42.662;23.260;2022-11-14T04:47:28;95107.56;;;7.98;60.86
20009;BME280;10165;42.662;23.260;2022-11-14T04:49:55;95111.84;;;8.07;60.94
20009;BME280;10165;42.662;23.260;2022-11-14T04:52:22;95104.06;;;7.89;61.01
20009;BME280;10165;42.662;23.260;2022-11-14T04:54:48;95114.34;;;8.04;61.08
20009;BME280;10165;42.662;23.260;2022-11-14T04:57:15;95107.91;;;7.83;61.51
20009;BME280;10165;42.662;23.260;2022-11-14T04:59:43;95099.66;;;7.84;61.64
20009;BME280;10165;42.662;23.260;2022-11-14T05:02:10;95095.66;;;7.95;61.41
20009;BME280;10165;42.662;23.260;2022-11-14T05:04:36;95104.28;;;7.79;61.62
20009;BME280;10165;42.662;23.260;2022-11-14T05:07:03;95103.50;;;7.78;61.30
20009;BME280;10165;42.662;23.260;2022-11-14T05:09:30;95109.22;;;7.49;61.84
20009;BME280;10165;42.662;23.260;2022-11-14T05:11:56;95106.31;;;7.59;61.64
20009;BME280;10165;42.662;23.260;2022-11-14T05:14:23;95114.31;;;7.24;62.44
20009;BME280;10165;42.662;23.260;2022-11-14T05:16:50;95119.56;;;7.01;63.08
20009;BME280;10165;42.662;23.260;2022-11-14T05:19:16;95129.06;;;7.02;63.05
20009;BME280;10165;42.662;23.260;2022-11-14T05:21:43;95129.06;;;7.02;63.24
20009;BME280;10165;42.662;23.260;2022-11-14T05:24:09;95127.72;;;7.05;63.27
20009;BME280;10165;42.662;23.260;2022-11-14T05:26:36;95133.09;;;6.86;63.34
20009;BME280;10165;42.662;23.260;2022-11-14T05:29:03;95129.19;;;6.97;63.53
20009;BME280;10165;42.662;23.260;2022-11-14T05:31:30;95137.72;;;6.94;63.55
20009;BME280;10165;42.662;23.260;2022-11-14T05:33:56;95132.03;;;6.87;63.93
20009;BME280;10165;42.662;23.260;2022-11-14T05:36:23;95142.34;;;6.75;64.19
20009;BME280;10165;42.662;23.260;2022-11-14T05:38:50;95137.34;;;6.73;63.88
20009;BME280;10165;42.662;23.260;2022-11-14T05:41:17;95145.22;;;6.65;64.70
20009;BME280;10165;42.662;23.260;2022-11-14T05:43:47;95136.75;;;6.90;64.35
20009;BME280;10165;42.662;23.260;2022-11-14T05:46:14;95132.44;;;6.81;64.33
20009;BME280;10165;42.662;23.260;2022-11-14T05:48:42;95138.72;;;6.57;64.22
20009;BME280;10165;42.662;23.260;2022-11-14T05:51:11;95137.00;;;6.34;65.46
20009;BME280;10165;42.662;23.260;2022-11-14T05:53:38;95132.41;;;6.40;66.69
20009;BME280;10165;42.662;23.260;2022-11-14T05:56:08;95134.91;;;6.77;65.79
20009;BME280;10165;42.662;23.260;2022-11-14T05:58:36;95132.63;;;6.98;64.70
20009;BME280;10165;42.662;23.260;2022-11-14T06:01:03;95142.06;;;6.77;65.02
20009;BME280;10165;42.662;23.260;2022-11-14T06:03:35;95149.47;;;6.34;66.90
20009;BME280;10165;42.662;23.260;2022-11-14T06:06:04;95142.28;;;6.66;66.35
20009;BME280;10165;42.662;23.260;2022-11-14T06:08:32;95149.72;;;6.64;66.55
20009;BME280;10165;42.662;23.260;2022-11-14T06:11:07;95148.94;;;6.64;66.34
20009;BME280;10165;42.662;23.260;2022-11-14T06:13:35;95157.59;;;6.83;66.33
20009;BME280;10165;42.662;23.260;2022-11-14T06:16:04;95154.06;;;6.74;66.67
20009;BME280;10165;42.662;23.260;2022-11-14T06:18:33;95169.19;;;6.60;67.27
20009;BME280;10165;42.662;23.260;2022-11-14T06:21:05;95162.25;;;6.78;67.40
20009;BME280;10165;42.662;23.260;2022-11-14T06:23:31;95165.25;;;6.71;67.53
20009;BME280;10165;42.662;23.260;2022-11-14T06:26:21;95167.06;;;6.89;67.33
20009;BME280;10165;42.662;23.260;2022-11-14T06:28:46;95153.09;;;6.97;66.65
20009;BME280;10165;42.662;23.260;2022-11-14T06:31:14;95162.81;;;6.88;66.87
20009;BME280;10165;42.662;23.260;2022-11-14T06:33:41;95155.66;;;7.16;66.65
20009;BME280;10165;42.662;23.260;2022-11-14T06:36:09;95157.41;;;6.80;67.41
20009;BME280;10165;42.662;23.260;2022-11-14T06:38:37;95156.25;;;6.86;67.81
20009;BME280;10165;42.662;23.260;2022-11-14T06:41:10;95146.19;;;7.24;67.17
20009;BME280;10165;42.662;23.260;2022-11-14T06:43:43;95154.63;;;6.71;67.78
20009;BME280;10165;42.662;23.260;2022-11-14T06:46:11;95147.78;;;6.70;68.78
20009;BME280;10165;42.662;23.260;2022-11-14T06:48:39;95146.56;;;6.49;70.29
20009;BME280;10165;42.662;23.260;2022-11-14T06:51:06;95147.50;;;7.12;67.98
20009;BME280;10165;42.662;23.260;2022-11-14T06:53:34;95141.88;;;6.87;68.77
20009;BME280;10165;42.662;23.260;2022-11-14T06:58:31;95141.09;;;7.00;68.37
20009;BME280;10165;42.662;23.260;2022-11-14T07:01:03;95141.50;;;6.93;68.76
20009;BME280;10165;42.662;23.260;2022-11-14T07:03:30;95136.94;;;7.07;69.13
20009;BME280;10165;42.662;23.260;2022-11-14T07:05:58;95138.78;;;7.34;68.70
20009;BME280;10165;42.662;23.260;2022-11-14T07:08:25;95143.22;;;7.25;68.77
20009;BME280;10165;42.662;23.260;2022-11-14T07:10:52;95140.09;;;7.09;69.85
20009;BME280;10165;42.662;23.260;2022-11-14T07:13:19;95140.31;;;6.99;69.26
20009;BME280;10165;42.662;23.260;2022-11-14T07:15:50;95142.34;;;6.61;71.49
20009;BME280;10165;42.662;23.260;2022-11-14T07:18:17;95149.34;;;6.71;72.04
20009;BME280;10165;42.662;23.260;2022-11-14T07:20:43;95144.22;;;6.74;71.57
20009;BME280;10165;42.662;23.260;2022-11-14T07:23:10;95136.34;;;7.10;70.06
20009;BME280;10165;42.662;23.260;2022-11-14T07:25:37;95143.22;;;7.39;69.31
20009;BME280;10165;42.662;23.260;2022-11-14T07:28:03;95143.03;;;7.21;70.71
20009;BME280;10165;42.662;23.260;2022-11-14T07:30:32;95135.88;;;7.58;69.18
20009;BME280;10165;42.662;23.260;2022-11-14T07:32:59;95133.34;;;7.75;68.66
20009;BME280;10165;42.662;23.260;2022-11-14T07:35:25;95137.44;;;7.59;68.42
20009;BME280;10165;42.662;23.260;2022-11-14T07:37:52;95137.06;;;7.65;68.64
20009;BME280;10165;42.662;23.260;2022-11-14T07:40:19;95127.81;;;7.49;69.57
20009;BME280;10165;42.662;23.260;2022-11-14T07:42:45;95131.19;;;7.41;69.83
20009;BME280;10165;42.662;23.260;2022-11-14T07:45:12;95125.09;;;7.41;69.85
20009;BME280;10165;42.662;23.260;2022-11-14T07:47:39;95130.06;;;7.20;69.86
20009;BME280;10165;42.662;23.260;2022-11-14T07:50:05;95126.84;;;7.45;69.40
20009;BME280;10165;42.662;23.260;2022-11-14T07:52:33;95128.69;;;7.58;68.88
20009;BME280;10165;42.662;23.260;2022-11-14T07:55:00;95122.13;;;7.78;68.57
20009;BME280;10165;42.662;23.260;2022-11-14T07:57:27;95124.31;;;7.76;69.41
20009;BME280;10165;42.662;23.260;2022-11-14T07:59:53;95120.19;;;7.70;68.98
20009;BME280;10165;42.662;23.260;2022-11-14T08:02:20;95119.69;;;7.68;68.37
20009;BME280;10165;42.662;23.260;2022-11-14T08:04:47;95112.94;;;8.29;67.94
20009;BME280;10165;42.662;23.260;2022-11-14T08:07:13;95116.03;;;8.00;66.86
20009;BME280;10165;42.662;23.260;2022-11-14T08:09:40;95123.56;;;7.62;68.81
20009;BME280;10165;42.662;23.260;2022-11-14T08:12:06;95123.19;;;6.78;72.34
20009;BME280;10165;42.662;23.260;2022-11-14T08:14:34;95121.81;;;6.81;71.96
20009;BME280;10165;42.662;23.260;2022-11-14T08:17:00;95116.59;;;7.52;70.38
20009;BME280;10165;42.662;23.260;2022-11-14T08:19:27;95118.81;;;7.73;69.07
20009;BME280;10165;42.662;23.260;2022-11-14T08:21:53;95121.56;;;7.67;69.74
20009;BME280;10165;42.662;23.260;2022-11-14T08:24:20;95119.81;;;7.63;69.42
20009;BME280;10165;42.662;23.260;2022-11-14T08:26:47;95117.75;;;7.60;70.40
20009;BME280;10165;42.662;23.260;2022-11-14T08:29:13;95121.97;;;7.97;69.57
20009;BME280;10165;42.662;23.260;2022-11-14T08:31:40;95105.94;;;8.10;68.82
20009;BME280;10165;42.662;23.260;2022-11-14T08:34:06;95106.41;;;8.35;68.12
20009;BME280;10165;42.662;23.260;2022-11-14T08:36:33;95112.22;;;8.37;68.52
20009;BME280;10165;42.662;23.260;2022-11-14T08:39:00;95114.97;;;7.43;70.64
20009;BME280;10165;42.662;23.260;2022-11-14T08:41:28;95112.69;;;7.94;69.69
20009;BME280;10165;42.662;23.260;2022-11-14T08:43:55;95110.94;;;7.90;69.63
20009;BME280;10165;42.662;23.260;2022-11-14T08:46:22;95103.31;;;7.75;70.96
20009;BME280;10165;42.662;23.260;2022-11-14T08:48:48;95096.97;;;8.06;70.73
20009;BME280;10165;42.662;23.260;2022-11-14T08:51:15;95095.94;;;7.72;71.39
20009;BME280;10165;42.662;23.260;2022-11-14T08:53:41;95094.06;;;8.16;70.01
20009;BME280;10165;42.662;23.260;2022-11-14T08:56:09;95093.75;;;8.40;68.88
20009;BME280;10165;42.662;23.260;2022-11-14T08:58:36;95092.53;;;7.93;70.18
20009;BME280;10165;42.662;23.260;2022-11-14T09:01:05;95091.38;;;7.28;72.95
20009;BME280;10165;42.662;23.260;2022-11-14T09:03:33;95100.38;;;7.04;74.82
20009;BME280;10165;42.662;23.260;2022-11-14T09:06:00;95085.75;;;7.65;74.02
20009;BME280;10165;42.662;23.260;2022-11-14T09:08:28;95084.81;;;8.36;71.04
20009;BME280;10165;42.662;23.260;2022-11-14T09:10:59;95087.06;;;7.54;72.35
20009;BME280;10165;42.662;23.260;2022-11-14T09:13:34;95073.69;;;8.12;71.84
20009;BME280;10165;42.662;23.260;2022-11-14T09:16:01;95079.91;;;8.60;68.94
20009;BME280;10165;42.662;23.260;2022-11-14T09:18:29;95069.59;;;9.16;67.74
20009;BME280;10165;42.662;23.260;2022-11-14T09:21:05;95057.19;;;9.71;67.96
20009;BME280;10165;42.662;23.260;2022-11-14T09:23:33;95058.28;;;9.19;67.46
20009;BME280;10165;42.662;23.260;2022-11-14T09:26:07;95058.00;;;9.46;65.33
20009;BME280;10165;42.662;23.260;2022-11-14T09:28:35;95059.38;;;9.18;66.42
20009;BME280;10165;42.662;23.260;2022-11-14T09:31:11;95060.03;;;9.49;65.13
20009;BME280;10165;42.662;23.260;2022-11-14T09:33:38;95062.72;;;9.57;64.79
20009;BME280;10165;42.662;23.260;2022-11-14T09:36:07;95056.09;;;9.81;64.86
20009;BME280;10165;42.662;23.260;2022-11-14T09:38:36;95052.66;;;9.80;63.75
20009;BME280;10165;42.662;23.260;2022-11-14T09:46:21;95041.06;;;9.50;64.46
20009;BME280;10165;42.662;23.260;2022-11-14T09:48:50;95033.53;;;9.70;64.40
20009;BME280;10165;42.662;23.260;2022-11-14T09:51:23;95036.19;;;9.70;63.29
20009;BME280;10165;42.662;23.260;2022-11-14T09:54:17;95032.06;;;9.89;63.37
20009;BME280;10165;42.662;23.260;2022-11-14T09:56:46;95026.16;;;9.24;65.85
20009;BME280;10165;42.662;23.260;2022-11-14T09:59:13;95033.03;;;8.51;68.32
20009;BME280;10165;42.662;23.260;2022-11-14T10:07:02;95020.72;;;8.72;67.57
20009;BME280;10165;42.662;23.260;2022-11-14T10:10:08;95009.44;;;8.27;69.48
20009;BME280;10165;42.662;23.260;2022-11-14T10:12:43;95011.41;;;9.52;66.14
20009;BME280;10165;42.662;23.260;2022-11-14T10:15:18;95005.28;;;9.43;65.71
20009;BME280;10165;42.662;23.260;2022-11-14T10:20:44;95002.63;;;9.26;66.02
20009;BME280;10165;42.662;23.260;2022-11-14T10:26:26;94992.25;;;9.58;65.16
20009;BME280;10165;42.662;23.260;2022-11-14T10:29:22;94984.44;;;10.55;62.93
20009;BME280;10165;42.662;23.260;2022-11-14T10:34:49;94972.53;;;11.02;60.92
20009;BME280;10165;42.662;23.260;2022-11-14T10:37:30;94965.28;;;10.82;60.92
20009;BME280;10165;42.662;23.260;2022-11-14T10:40:15;94969.00;;;10.90;60.68
20009;BME280;10165;42.662;23.260;2022-11-14T10:42:47;94964.47;;;11.11;60.69
20009;BME280;10165;42.662;23.260;2022-11-14T10:45:33;94963.47;;;11.36;60.15
20009;BME280;10165;42.662;23.260;2022-11-14T10:48:07;94958.84;;;11.25;59.87
20009;BME280;10165;42.662;23.260;2022-11-14T10:50:46;94949.44;;;11.39;59.59
20009;BME280;10165;42.662;23.260;2022-11-14T10:53:26;94948.16;;;11.25;60.05
20009;BME280;10165;42.662;23.260;2022-11-14T10:55:54;94948.31;;;11.61;59.56
20009;BME280;10165;42.662;23.260;2022-11-14T10:58:30;94937.13;;;11.59;58.95
20009;BME280;10165;42.662;23.260;2022-11-14T11:04:14;94938.91;;;11.55;58.60
20009;BME280;10165;42.662;23.260;2022-11-14T11:06:45;94936.56;;;11.86;58.69
20009;BME280;10165;42.662;23.260;2022-11-14T11:09:15;94934.28;;;11.43;58.79
20009;BME280;10165;42.662;23.260;2022-11-14T11:12:05;94934.81;;;12.03;57.52
20009;BME280;10165;42.662;23.260;2022-11-14T11:14:33;94931.53;;;11.85;57.73
20009;BME280;10165;42.662;23.260;2022-11-14T11:17:07;94927.66;;;11.82;57.37
20009;BME280;10165;42.662;23.260;2022-11-14T11:19:46;94928.38;;;11.71;58.22
20009;BME280;10165;42.662;23.260;2022-11-14T11:22:26;94924.75;;;11.55;58.09
20009;BME280;10165;42.662;23.260;2022-11-14T11:24:53;94920.66;;;12.14;56.61
20009;BME280;10165;42.662;23.260;2022-11-14T11:32:30;94915.97;;;12.11;56.81
20009;BME280;10165;42.662;23.260;2022-11-14T11:34:59;94920.06;;;11.51;58.08
20009;BME280;10165;42.662;23.260;2022-11-14T11:37:29;94912.63;;;12.02;56.91
20009;BME280;10165;42.662;23.260;2022-11-14T11:40:03;94917.09;;;11.32;57.75
20009;BME280;10165;42.662;23.260;2022-11-14T11:42:57;94915.84;;;12.08;56.59
20009;BME280;10165;42.662;23.260;2022-11-14T11:45:47;94908.97;;;12.19;56.28
20009;BME280;10165;42.662;23.260;2022-11-14T11:48:22;94904.81;;;12.21;55.72
20009;BME280;10165;42.662;23.260;2022-11-14T11:50:53;94899.63;;;11.47;57.92
20009;BME280;10165;42.662;23.260;2022-11-14T11:53:41;94899.53;;;11.76;57.38
20009;BME280;10165;42.662;23.260;2022-11-14T11:56:18;94897.78;;;12.17;55.89
20009;BME280;10165;42.662;23.260;2022-11-14T11:58:54;94894.53;;;12.35;55.02
20009;BME280;10165;42.662;23.260;2022-11-14T12:01:23;94887.75;;;12.38;55.24
20009;BME280;10165;42.662;23.260;2022-11-14T12:03:51;94886.41;;;12.56;54.79
20009;BME280;10165;42.662;23.260;2022-11-14T12:06:26;94887.63;;;12.46;54.78
20009;BME280;10165;42.662;23.260;2022-11-14T12:09:19;94884.19;;;12.22;55.22
20009;BME280;10165;42.662;23.260;2022-11-14T12:11:53;94885.81;;;12.63;54.47
20009;BME280;10165;42.662;23.260;2022-11-14T12:14:39;94872.63;;;12.70;54.48
20009;BME280;10165;42.662;23.260;2022-11-14T12:26:00;94868.06;;;12.46;54.64
20009;BME280;10165;42.662;23.260;2022-11-14T12:31:27;94861.84;;;12.94;53.89
20009;BME280;10165;42.662;23.260;2022-11-14T12:34:26;94865.44;;;12.86;53.72
20009;BME280;10165;42.662;23.260;2022-11-14T12:36:54;94858.16;;;12.99;53.47
20009;BME280;10165;42.662;23.260;2022-11-14T12:39:27;94855.78;;;12.97;53.45
20009;BME280;10165;42.662;23.260;2022-11-14T12:42:06;94854.69;;;13.10;53.16
20009;BME280;10165;42.662;23.260;2022-11-14T12:44:37;94855.47;;;12.99;53.78
20009;BME280;10165;42.662;23.260;2022-11-14T12:52:06;94855.97;;;13.16;53.33
20009;BME280;10165;42.662;23.260;2022-11-14T12:54:50;94850.09;;;13.26;53.02
20009;BME280;10165;42.662;23.260;2022-11-14T13:00:16;94845.25;;;13.16;53.37
20009;BME280;10165;42.662;23.260;2022-11-14T13:03:00;94846.28;;;13.12;53.19
20009;BME280;10165;42.662;23.260;2022-11-14T13:14:17;94832.59;;;13.45;52.76
20009;BME280;10165;42.662;23.260;2022-11-14T13:19:57;94828.16;;;13.09;53.81
20009;BME280;10165;42.662;23.260;2022-11-14T13:22:44;94826.69;;;13.39;52.85
20009;BME280;10165;42.662;23.260;2022-11-14T13:25:19;94823.59;;;13.37;52.87
20009;BME280;10165;42.662;23.260;2022-11-14T13:27:47;94829.22;;;13.48;52.68
20009;BME280;10165;42.662;23.260;2022-11-14T13:33:43;94819.72;;;13.22;53.21
20009;BME280;10165;42.662;23.260;2022-11-14T13:39:29;94822.94;;;13.28;52.93
20009;BME280;10165;42.662;23.260;2022-11-14T13:50:47;94817.75;;;13.35;53.06
20009;BME280;10165;42.662;23.260;2022-11-14T13:53:22;94815.34;;;13.30;52.95
20009;BME280;10165;42.662;23.260;2022-11-14T14:07:32;94806.50;;;13.14;53.42
20009;BME280;10165;42.662;23.260;2022-11-14T14:13:10;94800.75;;;13.15;53.26
20009;BME280;10165;42.662;23.260;2022-11-14T14:15:48;94804.22;;;13.16;53.44
20009;BME280;10165;42.662;23.260;2022-11-14T14:21:17;94795.84;;;13.17;53.62
20009;BME280;10165;42.662;23.260;2022-11-14T14:29:48;94802.34;;;13.04;53.89
20009;BME280;10165;42.662;23.260;2022-11-14T14:32:17;94802.94;;;12.98;54.35
20009;BME280;10165;42.662;23.260;2022-11-14T14:34:45;94797.13;;;12.95;54.53
20009;BME280;10165;42.662;23.260;2022-11-14T14:37:19;94803.44;;;12.87;54.88
20009;BME280;10165;42.662;23.260;2022-11-14T14:39:59;94805.81;;;12.77;55.07
20009;BME280;10165;42.662;23.260;2022-11-14T14:42:35;94800.81;;;12.75;55.34
20009;BME280;10165;42.662;23.260;2022-11-14T14:45:04;94798.13;;;12.75;55.68
20009;BME280;10165;42.662;23.260;2022-11-14T14:47:41;94803.38;;;12.72;55.56
20009;BME280;10165;42.662;23.260;2022-11-14T14:50:26;94795.97;;;12.53;55.86
20009;BME280;10165;42.662;23.260;2022-11-14T14:52:56;94797.97;;;12.56;56.16
20009;BME280;10165;42.662;23.260;2022-11-14T14:55:26;94801.75;;;12.55;56.01